sensor_id;sensor_type;location;lat;lon;timestamp;P1;durP1;ratioP1;P2;durP2;ratioP2
4694;SDS011;2361;49.540;8.390;2022-10-31T00:01:20;11.40;;;5.80;;
4694;SDS011;2361;49.540;8.390;2022-10-31T00:03:59;8.67;;;5.70;;
4694;SDS011;2361;49.540;8.390;2022-10-31T00:06:26;8.80;;;5.70;;
4694;SDS011;2361;49.540;8.390;2022-10-31T00:08:57;13.80;;;6.07;;
4694;SDS011;2361;49.540;8.390;2022-10-31T00:11:26;13.70;;;6.03;;
4694;SDS011;2361;49.540;8.390;2022-10-31T00:13:53;8.67;;;6.30;;
4694;SDS011;2361;49.540;8.390;2022-10-31T00:16:22;11.53;;;7.00;;
4694;SDS011;2361;49.540;8.390;2022-10-31T00:18:51;14.40;;;5.67;;
4694;SDS011;2361;49.540;8.390;2022-10-31T00:21:20;12.67;;;6.60;;
4694;SDS011;2361;49.540;8.390;2022-10-31T00:23:48;14.93;;;7.60;;
4694;SDS011;2361;49.540;8.390;2022-10-31T00:26:15;16.63;;;7.07;;
4694;SDS011;2361;49.540;8.390;2022-10-31T00:28:43;13.93;;;7.13;;
4694;SDS011;2361;49.540;8.390;2022-10-31T00:31:11;11.57;;;6.17;;
4694;SDS011;2361;49.540;8.390;2022-10-31T00:33:39;10.17;;;6.67;;
4694;SDS011;2361;49.540;8.390;2022-10-31T00:36:07;13.30;;;7.10;;
4694;SDS011;2361;49.540;8.390;2022-10-31T00:38:39;16.70;;;7.33;;
4694;SDS011;2361;49.540;8.390;2022-10-31T00:41:10;11.60;;;6.40;;
4694;SDS011;2361;49.540;8.390;2022-10-31T00:43:39;12.53;;;6.00;;
4694;SDS011;2361;49.540;8.390;2022-10-31T00:46:06;10.63;;;6.27;;
4694;SDS011;2361;49.540;8.390;2022-10-31T00:48:33;10.90;;;5.53;;
4694;SDS011;2361;49.540;8.390;2022-10-31T00:51:00;16.70;;;5.20;;
4694;SDS011;2361;49.540;8.390;2022-10-31T00:53:27;8.40;;;4.93;;
4694;SDS011;2361;49.540;8.390;2022-10-31T00:55:53;10.60;;;6.30;;
4694;SDS011;2361;49.540;8.390;2022-10-31T00:58:20;9.63;;;5.17;;
4694;SDS011;2361;49.540;8.390;2022-10-31T01:00:48;8.13;;;4.83;;
4694;SDS011;2361;49.540;8.390;2022-10-31T01:03:22;10.33;;;6.00;;
4694;SDS011;2361;49.540;8.390;2022-10-31T01:06:01;9.77;;;5.10;;
4694;SDS011;2361;49.540;8.390;2022-10-31T01:08:35;8.97;;;5.23;;
4694;SDS011;2361;49.540;8.390;2022-10-31T01:11:07;9.30;;;5.53;;
4694;SDS011;2361;49.540;8.390;2022-10-31T01:13:38;9.93;;;5.70;;
4694;SDS011;2361;49.540;8.390;2022-10-31T01:16:05;11.63;;;5.60;;
4694;SDS011;2361;49.540;8.390;2022-10-31T01:18:35;7.77;;;5.60;;
4694;SDS011;2361;49.540;8.390;2022-10-31T01:21:06;9.30;;;5.30;;
4694;SDS011;2361;49.540;8.390;2022-10-31T01:23:38;7.03;;;5.77;;
4694;SDS011;2361;49.540;8.390;2022-10-31T01:28:40;10.50;;;5.97;;
4694;SDS011;2361;49.540;8.390;2022-10-31T01:31:18;9.83;;;5.90;;
4694;SDS011;2361;49.540;8.390;2022-10-31T01:33:49;11.80;;;6.67;;
4694;SDS011;2361;49.540;8.390;2022-10-31T01:36:17;9.73;;;6.17;;
4694;SDS011;2361;49.540;8.390;2022-10-31T01:38:51;9.33;;;6.10;;
4694;SDS011;2361;49.540;8.390;2022-10-31T01:41:21;11.37;;;7.00;;
4694;SDS011;2361;49.540;8.390;2022-10-31T01:43:56;10.10;;;6.20;;
4694;SDS011;2361;49.540;8.390;2022-10-31T01:46:53;8.10;;;5.63;;
4694;SDS011;2361;49.540;8.390;2022-10-31T01:49:51;6.87;;;4.97;;
4694;SDS011;2361;49.540;8.390;2022-10-31T01:52:24;8.63;;;5.57;;
4694;SDS011;2361;49.540;8.390;2022-10-31T01:55:06;12.93;;;5.83;;
4694;SDS011;2361;49.540;8.390;2022-10-31T01:57:44;10.20;;;6.17;;
4694;SDS011;2361;49.540;8.390;2022-10-31T02:00:14;18.00;;;6.40;;
4694;SDS011;2361;49.540;8.390;2022-10-31T02:02:42;15.23;;;6.30;;
4694;SDS011;2361;49.540;8.390;2022-10-31T02:05:11;13.33;;;6.40;;
4694;SDS011;2361;49.540;8.390;2022-10-31T02:07:45;7.63;;;5.50;;
4694;SDS011;2361;49.540;8.390;2022-10-31T02:10:50;8.10;;;5.53;;
4694;SDS011;2361;49.540;8.390;2022-10-31T02:13:18;10.70;;;6.00;;
4694;SDS011;2361;49.540;8.390;2022-10-31T02:15:47;7.20;;;5.10;;
4694;SDS011;2361;49.540;8.390;2022-10-31T02:18:19;11.83;;;5.80;;
4694;SDS011;2361;49.540;8.390;2022-10-31T02:20:55;7.17;;;5.40;;
4694;SDS011;2361;49.540;8.390;2022-10-31T02:27:16;6.97;;;5.53;;
4694;SDS011;2361;49.540;8.390;2022-10-31T02:35:40;8.37;;;5.63;;
4694;SDS011;2361;49.540;8.390;2022-10-31T02:38:43;10.57;;;5.07;;
4694;SDS011;2361;49.540;8.390;2022-10-31T02:41:49;7.83;;;5.43;;
4694;SDS011;2361;49.540;8.390;2022-10-31T02:47:08;7.83;;;5.10;;
4694;SDS011;2361;49.540;8.390;2022-10-31T02:52:30;10.17;;;5.60;;
4694;SDS011;2361;49.540;8.390;2022-10-31T02:55:08;7.07;;;4.90;;
4694;SDS011;2361;49.540;8.390;2022-10-31T02:58:03;6.27;;;4.50;;
4694;SDS011;2361;49.540;8.390;2022-10-31T03:00:40;6.27;;;4.90;;
4694;SDS011;2361;49.540;8.390;2022-10-31T03:03:46;5.70;;;4.97;;
4694;SDS011;2361;49.540;8.390;2022-10-31T03:06:34;7.30;;;4.80;;
4694;SDS011;2361;49.540;8.390;2022-10-31T03:15:12;5.20;;;4.70;;
4694;SDS011;2361;49.540;8.390;2022-10-31T03:18:04;6.40;;;5.07;;
4694;SDS011;2361;49.540;8.390;2022-10-31T03:20:52;10.30;;;6.60;;
4694;SDS011;2361;49.540;8.390;2022-10-31T03:23:25;8.23;;;5.50;;
4694;SDS011;2361;49.540;8.390;2022-10-31T03:25:53;7.00;;;4.47;;
4694;SDS011;2361;49.540;8.390;2022-10-31T03:28:23;6.93;;;4.60;;
4694;SDS011;2361;49.540;8.390;2022-10-31T03:30:56;5.80;;;4.07;;
4694;SDS011;2361;49.540;8.390;2022-10-31T03:33:28;5.77;;;4.70;;
4694;SDS011;2361;49.540;8.390;2022-10-31T03:35:59;6.30;;;4.30;;
4694;SDS011;2361;49.540;8.390;2022-10-31T03:38:29;5.53;;;4.10;;
4694;SDS011;2361;49.540;8.390;2022-10-31T03:41:01;6.20;;;4.03;;
4694;SDS011;2361;49.540;8.390;2022-10-31T03:43:33;5.00;;;4.00;;
4694;SDS011;2361;49.540;8.390;2022-10-31T03:46:07;5.63;;;4.30;;
4694;SDS011;2361;49.540;8.390;2022-10-31T03:48:34;6.83;;;4.87;;
4694;SDS011;2361;49.540;8.390;2022-10-31T03:51:13;8.17;;;5.23;;
4694;SDS011;2361;49.540;8.390;2022-10-31T03:54:00;7.13;;;4.67;;
4694;SDS011;2361;49.540;8.390;2022-10-31T03:56:47;5.70;;;4.37;;
4694;SDS011;2361;49.540;8.390;2022-10-31T04:01:51;12.17;;;4.90;;
4694;SDS011;2361;49.540;8.390;2022-10-31T04:04:24;6.07;;;4.83;;
4694;SDS011;2361;49.540;8.390;2022-10-31T04:06:52;6.43;;;4.70;;
4694;SDS011;2361;49.540;8.390;2022-10-31T04:09:22;4.13;;;3.60;;
4694;SDS011;2361;49.540;8.390;2022-10-31T04:11:52;5.80;;;4.13;;
4694;SDS011;2361;49.540;8.390;2022-10-31T04:14:22;7.77;;;5.10;;
4694;SDS011;2361;49.540;8.390;2022-10-31T04:16:52;10.60;;;5.73;;
4694;SDS011;2361;49.540;8.390;2022-10-31T04:19:20;8.30;;;5.10;;
4694;SDS011;2361;49.540;8.390;2022-10-31T04:21:47;7.80;;;4.77;;
4694;SDS011;2361;49.540;8.390;2022-10-31T04:24:14;8.50;;;5.10;;
4694;SDS011;2361;49.540;8.390;2022-10-31T04:26:40;9.20;;;4.67;;
4694;SDS011;2361;49.540;8.390;2022-10-31T04:29:10;8.00;;;5.30;;
4694;SDS011;2361;49.540;8.390;2022-10-31T04:31:37;6.73;;;5.10;;
4694;SDS011;2361;49.540;8.390;2022-10-31T04:34:04;6.83;;;5.43;;
4694;SDS011;2361;49.540;8.390;2022-10-31T04:36:31;8.70;;;5.00;;
4694;SDS011;2361;49.540;8.390;2022-10-31T04:38:58;8.23;;;5.50;;
4694;SDS011;2361;49.540;8.390;2022-10-31T04:41:24;11.20;;;7.10;;
4694;SDS011;2361;49.540;8.390;2022-10-31T04:43:51;13.13;;;7.57;;
4694;SDS011;2361;49.540;8.390;2022-10-31T04:46:18;12.67;;;7.30;;
4694;SDS011;2361;49.540;8.390;2022-10-31T04:48:45;10.83;;;7.43;;
4694;SDS011;2361;49.540;8.390;2022-10-31T04:51:12;14.60;;;7.33;;
4694;SDS011;2361;49.540;8.390;2022-10-31T04:53:39;11.67;;;6.33;;
4694;SDS011;2361;49.540;8.390;2022-10-31T04:56:06;9.10;;;5.97;;
4694;SDS011;2361;49.540;8.390;2022-10-31T04:58:33;9.20;;;4.90;;
4694;SDS011;2361;49.540;8.390;2022-10-31T05:01:00;8.17;;;5.10;;
4694;SDS011;2361;49.540;8.390;2022-10-31T05:03:27;6.63;;;4.67;;
4694;SDS011;2361;49.540;8.390;2022-10-31T05:05:53;8.43;;;5.50;;
4694;SDS011;2361;49.540;8.390;2022-10-31T05:08:20;8.23;;;5.40;;
4694;SDS011;2361;49.540;8.390;2022-10-31T05:10:47;10.47;;;5.80;;
4694;SDS011;2361;49.540;8.390;2022-10-31T05:13:14;9.77;;;5.90;;
4694;SDS011;2361;49.540;8.390;2022-10-31T05:15:41;12.47;;;6.53;;
4694;SDS011;2361;49.540;8.390;2022-10-31T05:18:08;9.20;;;5.87;;
4694;SDS011;2361;49.540;8.390;2022-10-31T05:20:35;6.37;;;4.10;;
4694;SDS011;2361;49.540;8.390;2022-10-31T05:23:02;8.00;;;4.30;;
4694;SDS011;2361;49.540;8.390;2022-10-31T05:25:29;7.13;;;4.70;;
4694;SDS011;2361;49.540;8.390;2022-10-31T05:27:56;12.50;;;5.53;;
4694;SDS011;2361;49.540;8.390;2022-10-31T05:30:24;9.07;;;5.00;;
4694;SDS011;2361;49.540;8.390;2022-10-31T05:32:55;7.57;;;5.13;;
4694;SDS011;2361;49.540;8.390;2022-10-31T05:35:27;10.30;;;5.27;;
4694;SDS011;2361;49.540;8.390;2022-10-31T05:37:58;5.43;;;3.93;;
4694;SDS011;2361;49.540;8.390;2022-10-31T05:40:26;7.53;;;4.60;;
4694;SDS011;2361;49.540;8.390;2022-10-31T05:42:54;8.13;;;5.10;;
4694;SDS011;2361;49.540;8.390;2022-10-31T05:45:22;7.30;;;5.00;;
4694;SDS011;2361;49.540;8.390;2022-10-31T05:47:59;7.07;;;5.00;;
4694;SDS011;2361;49.540;8.390;2022-10-31T05:50:29;8.07;;;5.17;;
4694;SDS011;2361;49.540;8.390;2022-10-31T05:53:01;7.27;;;5.30;;
4694;SDS011;2361;49.540;8.390;2022-10-31T05:55:30;8.03;;;5.60;;
4694;SDS011;2361;49.540;8.390;2022-10-31T05:57:58;14.07;;;6.20;;
4694;SDS011;2361;49.540;8.390;2022-10-31T06:00:26;8.60;;;5.90;;
4694;SDS011;2361;49.540;8.390;2022-10-31T06:03:00;16.93;;;6.50;;
4694;SDS011;2361;49.540;8.390;2022-10-31T06:05:32;15.30;;;7.87;;
4694;SDS011;2361;49.540;8.390;2022-10-31T06:07:59;10.80;;;7.30;;
4694;SDS011;2361;49.540;8.390;2022-10-31T06:10:27;7.70;;;5.50;;
4694;SDS011;2361;49.540;8.390;2022-10-31T06:12:54;19.90;;;6.07;;
4694;SDS011;2361;49.540;8.390;2022-10-31T06:15:21;8.60;;;5.30;;
4694;SDS011;2361;49.540;8.390;2022-10-31T06:18:02;8.90;;;5.63;;
4694;SDS011;2361;49.540;8.390;2022-10-31T06:20:32;6.67;;;5.37;;
4694;SDS011;2361;49.540;8.390;2022-10-31T06:22:59;8.07;;;5.83;;
4694;SDS011;2361;49.540;8.390;2022-10-31T06:25:29;14.63;;;6.70;;
4694;SDS011;2361;49.540;8.390;2022-10-31T06:27:56;14.80;;;7.10;;
4694;SDS011;2361;49.540;8.390;2022-10-31T06:30:24;11.50;;;7.20;;
4694;SDS011;2361;49.540;8.390;2022-10-31T06:32:51;14.10;;;7.23;;
4694;SDS011;2361;49.540;8.390;2022-10-31T06:35:18;13.73;;;7.87;;
4694;SDS011;2361;49.540;8.390;2022-10-31T06:37:52;10.13;;;7.07;;
4694;SDS011;2361;49.540;8.390;2022-10-31T06:40:20;12.10;;;7.37;;
4694;SDS011;2361;49.540;8.390;2022-10-31T06:42:47;13.40;;;7.80;;
4694;SDS011;2361;49.540;8.390;2022-10-31T06:45:13;9.97;;;7.07;;
4694;SDS011;2361;49.540;8.390;2022-10-31T06:47:40;11.83;;;6.57;;
4694;SDS011;2361;49.540;8.390;2022-10-31T06:50:27;12.03;;;6.70;;
4694;SDS011;2361;49.540;8.390;2022-10-31T06:52:55;12.30;;;7.10;;
4694;SDS011;2361;49.540;8.390;2022-10-31T06:55:25;14.47;;;6.90;;
4694;SDS011;2361;49.540;8.390;2022-10-31T06:57:53;9.20;;;6.60;;
4694;SDS011;2361;49.540;8.390;2022-10-31T07:00:25;13.00;;;6.80;;
4694;SDS011;2361;49.540;8.390;2022-10-31T07:03:04;12.43;;;6.90;;
4694;SDS011;2361;49.540;8.390;2022-10-31T07:05:35;10.37;;;6.97;;
4694;SDS011;2361;49.540;8.390;2022-10-31T07:08:04;8.90;;;6.60;;
4694;SDS011;2361;49.540;8.390;2022-10-31T07:10:35;12.93;;;6.90;;
4694;SDS011;2361;49.540;8.390;2022-10-31T07:13:06;12.73;;;6.90;;
4694;SDS011;2361;49.540;8.390;2022-10-31T07:15:41;8.50;;;6.13;;
4694;SDS011;2361;49.540;8.390;2022-10-31T07:18:10;9.40;;;6.73;;
4694;SDS011;2361;49.540;8.390;2022-10-31T07:20:37;9.37;;;6.57;;
4694;SDS011;2361;49.540;8.390;2022-10-31T07:23:05;10.30;;;6.13;;
4694;SDS011;2361;49.540;8.390;2022-10-31T07:25:32;7.47;;;6.20;;
4694;SDS011;2361;49.540;8.390;2022-10-31T07:27:59;7.33;;;6.20;;
4694;SDS011;2361;49.540;8.390;2022-10-31T07:30:26;9.67;;;6.07;;
4694;SDS011;2361;49.540;8.390;2022-10-31T07:32:53;6.73;;;5.97;;
4694;SDS011;2361;49.540;8.390;2022-10-31T07:35:25;12.00;;;6.70;;
4694;SDS011;2361;49.540;8.390;2022-10-31T07:37:53;9.17;;;6.23;;
4694;SDS011;2361;49.540;8.390;2022-10-31T07:40:21;11.43;;;7.10;;
4694;SDS011;2361;49.540;8.390;2022-10-31T07:42:50;10.27;;;7.00;;
4694;SDS011;2361;49.540;8.390;2022-10-31T07:45:19;9.80;;;6.90;;
4694;SDS011;2361;49.540;8.390;2022-10-31T07:47:48;13.00;;;7.57;;
4694;SDS011;2361;49.540;8.390;2022-10-31T07:50:23;8.57;;;7.03;;
4694;SDS011;2361;49.540;8.390;2022-10-31T07:53:13;12.63;;;7.30;;
4694;SDS011;2361;49.540;8.390;2022-10-31T07:55:41;9.53;;;6.77;;
4694;SDS011;2361;49.540;8.390;2022-10-31T07:58:13;11.10;;;7.43;;
4694;SDS011;2361;49.540;8.390;2022-10-31T08:00:43;10.10;;;6.90;;
4694;SDS011;2361;49.540;8.390;2022-10-31T08:03:13;9.50;;;7.07;;
4694;SDS011;2361;49.540;8.390;2022-10-31T08:05:42;10.50;;;7.20;;
4694;SDS011;2361;49.540;8.390;2022-10-31T08:08:13;13.33;;;7.27;;
4694;SDS011;2361;49.540;8.390;2022-10-31T08:10:41;9.53;;;7.63;;
4694;SDS011;2361;49.540;8.390;2022-10-31T08:13:12;12.90;;;5.87;;
4694;SDS011;2361;49.540;8.390;2022-10-31T08:15:40;11.93;;;7.10;;
4694;SDS011;2361;49.540;8.390;2022-10-31T08:18:14;9.20;;;8.20;;
4694;SDS011;2361;49.540;8.390;2022-10-31T08:20:41;14.63;;;6.70;;
4694;SDS011;2361;49.540;8.390;2022-10-31T08:23:10;10.67;;;7.67;;
4694;SDS011;2361;49.540;8.390;2022-10-31T08:25:38;10.90;;;8.07;;
4694;SDS011;2361;49.540;8.390;2022-10-31T08:28:06;9.43;;;6.50;;
4694;SDS011;2361;49.540;8.390;2022-10-31T08:30:37;9.40;;;7.77;;
4694;SDS011;2361;49.540;8.390;2022-10-31T08:33:10;12.73;;;9.33;;
4694;SDS011;2361;49.540;8.390;2022-10-31T08:35:39;15.27;;;8.17;;
4694;SDS011;2361;49.540;8.390;2022-10-31T08:38:07;9.73;;;7.67;;
4694;SDS011;2361;49.540;8.390;2022-10-31T08:40:36;8.10;;;7.23;;
4694;SDS011;2361;49.540;8.390;2022-10-31T08:43:05;10.13;;;7.63;;
4694;SDS011;2361;49.540;8.390;2022-10-31T08:45:37;7.63;;;6.83;;
4694;SDS011;2361;49.540;8.390;2022-10-31T08:48:05;12.60;;;7.13;;
4694;SDS011;2361;49.540;8.390;2022-10-31T08:50:38;9.40;;;7.30;;
4694;SDS011;2361;49.540;8.390;2022-10-31T08:53:09;9.03;;;7.70;;
4694;SDS011;2361;49.540;8.390;2022-10-31T08:55:39;9.43;;;7.40;;
4694;SDS011;2361;49.540;8.390;2022-10-31T08:58:10;9.20;;;7.50;;
4694;SDS011;2361;49.540;8.390;2022-10-31T09:00:40;9.70;;;7.13;;
4694;SDS011;2361;49.540;8.390;2022-10-31T09:03:12;12.10;;;8.50;;
4694;SDS011;2361;49.540;8.390;2022-10-31T09:05:45;16.87;;;8.00;;
4694;SDS011;2361;49.540;8.390;2022-10-31T09:08:12;19.93;;;8.40;;
4694;SDS011;2361;49.540;8.390;2022-10-31T09:10:42;14.40;;;8.20;;
4694;SDS011;2361;49.540;8.390;2022-10-31T09:13:16;18.97;;;8.13;;
4694;SDS011;2361;49.540;8.390;2022-10-31T09:15:49;9.80;;;6.83;;
4694;SDS011;2361;49.540;8.390;2022-10-31T09:18:18;11.33;;;7.80;;
4694;SDS011;2361;49.540;8.390;2022-10-31T09:20:48;12.20;;;8.80;;
4694;SDS011;2361;49.540;8.390;2022-10-31T09:23:17;11.60;;;7.53;;
4694;SDS011;2361;49.540;8.390;2022-10-31T09:25:49;10.43;;;7.97;;
4694;SDS011;2361;49.540;8.390;2022-10-31T09:28:19;14.50;;;7.10;;
4694;SDS011;2361;49.540;8.390;2022-10-31T09:30:50;9.40;;;7.63;;
4694;SDS011;2361;49.540;8.390;2022-10-31T09:33:19;12.50;;;8.10;;
4694;SDS011;2361;49.540;8.390;2022-10-31T09:35:47;11.50;;;7.80;;
4694;SDS011;2361;49.540;8.390;2022-10-31T09:38:15;14.70;;;9.30;;
4694;SDS011;2361;49.540;8.390;2022-10-31T09:46:42;16.63;;;9.57;;
4694;SDS011;2361;49.540;8.390;2022-10-31T09:55:00;16.90;;;9.90;;
4694;SDS011;2361;49.540;8.390;2022-10-31T09:57:46;13.20;;;9.43;;
4694;SDS011;2361;49.540;8.390;2022-10-31T10:00:16;13.80;;;9.07;;
4694;SDS011;2361;49.540;8.390;2022-10-31T10:02:51;14.73;;;8.80;;
4694;SDS011;2361;49.540;8.390;2022-10-31T10:05:33;14.03;;;8.90;;
4694;SDS011;2361;49.540;8.390;2022-10-31T10:08:14;18.67;;;9.40;;
4694;SDS011;2361;49.540;8.390;2022-10-31T10:10:50;12.90;;;8.40;;
4694;SDS011;2361;49.540;8.390;2022-10-31T10:19:48;18.47;;;9.67;;
4694;SDS011;2361;49.540;8.390;2022-10-31T10:22:42;16.97;;;7.67;;
4694;SDS011;2361;49.540;8.390;2022-10-31T10:31:14;19.93;;;9.90;;
4694;SDS011;2361;49.540;8.390;2022-10-31T10:36:38;21.80;;;10.53;;
4694;SDS011;2361;49.540;8.390;2022-10-31T10:39:21;12.77;;;8.70;;
4694;SDS011;2361;49.540;8.390;2022-10-31T10:41:51;12.77;;;9.23;;
4694;SDS011;2361;49.540;8.390;2022-10-31T10:44:38;13.93;;;9.43;;
4694;SDS011;2361;49.540;8.390;2022-10-31T10:47:42;15.50;;;9.43;;
4694;SDS011;2361;49.540;8.390;2022-10-31T10:50:20;16.37;;;9.87;;
4694;SDS011;2361;49.540;8.390;2022-10-31T10:53:02;20.50;;;10.40;;
4694;SDS011;2361;49.540;8.390;2022-10-31T10:59:34;15.37;;;10.60;;
4694;SDS011;2361;49.540;8.390;2022-10-31T11:02:03;15.33;;;9.40;;
4694;SDS011;2361;49.540;8.390;2022-10-31T11:04:52;20.47;;;10.70;;
4694;SDS011;2361;49.540;8.390;2022-10-31T11:07:25;16.80;;;8.43;;
4694;SDS011;2361;49.540;8.390;2022-10-31T11:10:04;22.97;;;10.97;;
4694;SDS011;2361;49.540;8.390;2022-10-31T11:12:39;19.70;;;10.13;;
4694;SDS011;2361;49.540;8.390;2022-10-31T11:18:26;17.90;;;10.77;;
4694;SDS011;2361;49.540;8.390;2022-10-31T11:20:58;22.93;;;11.80;;
4694;SDS011;2361;49.540;8.390;2022-10-31T11:23:29;19.67;;;12.47;;
4694;SDS011;2361;49.540;8.390;2022-10-31T11:25:58;18.67;;;10.40;;
4694;SDS011;2361;49.540;8.390;2022-10-31T11:28:29;20.67;;;11.13;;
4694;SDS011;2361;49.540;8.390;2022-10-31T11:31:07;18.50;;;11.50;;
4694;SDS011;2361;49.540;8.390;2022-10-31T11:33:40;15.20;;;10.77;;
4694;SDS011;2361;49.540;8.390;2022-10-31T11:36:27;21.43;;;11.90;;
4694;SDS011;2361;49.540;8.390;2022-10-31T11:39:03;19.53;;;11.10;;
4694;SDS011;2361;49.540;8.390;2022-10-31T11:41:45;17.07;;;8.80;;
4694;SDS011;2361;49.540;8.390;2022-10-31T11:44:15;19.47;;;10.83;;
4694;SDS011;2361;49.540;8.390;2022-10-31T11:46:49;17.20;;;10.70;;
4694;SDS011;2361;49.540;8.390;2022-10-31T11:49:30;21.50;;;10.90;;
4694;SDS011;2361;49.540;8.390;2022-10-31T11:52:01;19.63;;;10.97;;
4694;SDS011;2361;49.540;8.390;2022-10-31T11:54:35;19.00;;;11.10;;
4694;SDS011;2361;49.540;8.390;2022-10-31T11:57:32;17.67;;;10.20;;
4694;SDS011;2361;49.540;8.390;2022-10-31T12:08:25;20.93;;;10.10;;
4694;SDS011;2361;49.540;8.390;2022-10-31T12:11:11;17.63;;;10.80;;
4694;SDS011;2361;49.540;8.390;2022-10-31T12:17:20;18.00;;;9.47;;
4694;SDS011;2361;49.540;8.390;2022-10-31T12:25:50;15.37;;;8.73;;
4694;SDS011;2361;49.540;8.390;2022-10-31T12:29:07;18.30;;;7.30;;
4694;SDS011;2361;49.540;8.390;2022-10-31T12:34:44;26.83;;;10.50;;
4694;SDS011;2361;49.540;8.390;2022-10-31T12:37:22;22.77;;;10.20;;
4694;SDS011;2361;49.540;8.390;2022-10-31T12:40:32;18.90;;;10.33;;
4694;SDS011;2361;49.540;8.390;2022-10-31T12:46:22;27.97;;;10.77;;
4694;SDS011;2361;49.540;8.390;2022-10-31T12:52:54;11.30;;;7.80;;
4694;SDS011;2361;49.540;8.390;2022-10-31T12:57:51;13.47;;;9.20;;
4694;SDS011;2361;49.540;8.390;2022-10-31T13:00:36;13.13;;;8.30;;
4694;SDS011;2361;49.540;8.390;2022-10-31T13:06:27;21.40;;;9.53;;
4694;SDS011;2361;49.540;8.390;2022-10-31T13:09:09;19.00;;;10.20;;
4694;SDS011;2361;49.540;8.390;2022-10-31T13:11:55;16.17;;;11.00;;
4694;SDS011;2361;49.540;8.390;2022-10-31T13:17:15;18.73;;;8.30;;
4694;SDS011;2361;49.540;8.390;2022-10-31T13:19:55;18.03;;;10.50;;
4694;SDS011;2361;49.540;8.390;2022-10-31T13:22:48;16.07;;;9.27;;
4694;SDS011;2361;49.540;8.390;2022-10-31T13:25:28;14.40;;;9.20;;
4694;SDS011;2361;49.540;8.390;2022-10-31T13:28:03;17.67;;;11.40;;
4694;SDS011;2361;49.540;8.390;2022-10-31T13:30:42;15.73;;;8.80;;
4694;SDS011;2361;49.540;8.390;2022-10-31T13:33:26;21.03;;;10.90;;
4694;SDS011;2361;49.540;8.390;2022-10-31T13:45:28;20.77;;;9.20;;
4694;SDS011;2361;49.540;8.390;2022-10-31T13:47:59;19.00;;;10.30;;
4694;SDS011;2361;49.540;8.390;2022-10-31T13:50:32;17.57;;;11.20;;
4694;SDS011;2361;49.540;8.390;2022-10-31T13:54:01;26.33;;;11.67;;
4694;SDS011;2361;49.540;8.390;2022-10-31T14:01:36;23.10;;;11.57;;
4694;SDS011;2361;49.540;8.390;2022-10-31T14:04:16;15.13;;;10.07;;
4694;SDS011;2361;49.540;8.390;2022-10-31T14:09:54;15.10;;;8.90;;
4694;SDS011;2361;49.540;8.390;2022-10-31T14:12:45;15.03;;;8.90;;
4694;SDS011;2361;49.540;8.390;2022-10-31T14:15:18;14.40;;;9.73;;
4694;SDS011;2361;49.540;8.390;2022-10-31T14:28:56;19.27;;;11.13;;
4694;SDS011;2361;49.540;8.390;2022-10-31T14:31:44;19.63;;;10.40;;
4694;SDS011;2361;49.540;8.390;2022-10-31T14:34:34;17.57;;;10.57;;
4694;SDS011;2361;49.540;8.390;2022-10-31T14:39:53;28.50;;;11.53;;
4694;SDS011;2361;49.540;8.390;2022-10-31T14:51:14;21.87;;;11.47;;
4694;SDS011;2361;49.540;8.390;2022-10-31T14:53:55;15.33;;;10.17;;
4694;SDS011;2361;49.540;8.390;2022-10-31T14:56:24;14.20;;;9.00;;
4694;SDS011;2361;49.540;8.390;2022-10-31T14:58:52;16.50;;;9.67;;
4694;SDS011;2361;49.540;8.390;2022-10-31T15:03:51;25.03;;;11.73;;
4694;SDS011;2361;49.540;8.390;2022-10-31T15:06:40;22.67;;;12.23;;
4694;SDS011;2361;49.540;8.390;2022-10-31T15:11:57;20.17;;;10.07;;
4694;SDS011;2361;49.540;8.390;2022-10-31T15:14:27;16.60;;;11.13;;
4694;SDS011;2361;49.540;8.390;2022-10-31T15:16:58;14.50;;;9.53;;
4694;SDS011;2361;49.540;8.390;2022-10-31T15:19:28;16.63;;;10.47;;
4694;SDS011;2361;49.540;8.390;2022-10-31T15:21:58;20.13;;;10.70;;
4694;SDS011;2361;49.540;8.390;2022-10-31T15:24:29;14.70;;;9.57;;
4694;SDS011;2361;49.540;8.390;2022-10-31T15:27:02;16.97;;;10.63;;
4694;SDS011;2361;49.540;8.390;2022-10-31T15:29:30;16.87;;;9.80;;
4694;SDS011;2361;49.540;8.390;2022-10-31T15:32:09;16.60;;;10.60;;
4694;SDS011;2361;49.540;8.390;2022-10-31T15:34:50;17.50;;;10.23;;
4694;SDS011;2361;49.540;8.390;2022-10-31T15:37:19;16.37;;;9.20;;
4694;SDS011;2361;49.540;8.390;2022-10-31T15:39:48;17.40;;;9.30;;
4694;SDS011;2361;49.540;8.390;2022-10-31T15:45:05;16.70;;;10.20;;
4694;SDS011;2361;49.540;8.390;2022-10-31T15:47:35;21.50;;;8.70;;
4694;SDS011;2361;49.540;8.390;2022-10-31T15:50:03;15.40;;;8.60;;
4694;SDS011;2361;49.540;8.390;2022-10-31T15:52:48;16.00;;;7.37;;
4694;SDS011;2361;49.540;8.390;2022-10-31T15:55:19;9.07;;;5.37;;
4694;SDS011;2361;49.540;8.390;2022-10-31T15:57:56;7.70;;;4.07;;
4694;SDS011;2361;49.540;8.390;2022-10-31T16:00:37;19.37;;;7.50;;
4694;SDS011;2361;49.540;8.390;2022-10-31T16:05:45;17.13;;;7.80;;
4694;SDS011;2361;49.540;8.390;2022-10-31T16:08:25;13.73;;;6.90;;
4694;SDS011;2361;49.540;8.390;2022-10-31T16:10:52;9.70;;;6.50;;
4694;SDS011;2361;49.540;8.390;2022-10-31T16:13:20;23.83;;;9.77;;
4694;SDS011;2361;49.540;8.390;2022-10-31T16:15:56;16.10;;;9.23;;
4694;SDS011;2361;49.540;8.390;2022-10-31T16:18:46;17.13;;;9.10;;
4694;SDS011;2361;49.540;8.390;2022-10-31T16:21:15;12.73;;;8.50;;
4694;SDS011;2361;49.540;8.390;2022-10-31T16:23:50;15.30;;;8.80;;
4694;SDS011;2361;49.540;8.390;2022-10-31T16:26:23;14.10;;;8.40;;
4694;SDS011;2361;49.540;8.390;2022-10-31T16:28:52;12.00;;;7.73;;
4694;SDS011;2361;49.540;8.390;2022-10-31T16:31:30;13.77;;;7.50;;
4694;SDS011;2361;49.540;8.390;2022-10-31T16:34:14;12.37;;;7.37;;
4694;SDS011;2361;49.540;8.390;2022-10-31T16:36:51;12.60;;;7.93;;
4694;SDS011;2361;49.540;8.390;2022-10-31T16:39:18;19.43;;;8.93;;
4694;SDS011;2361;49.540;8.390;2022-10-31T16:41:46;19.17;;;8.37;;
4694;SDS011;2361;49.540;8.390;2022-10-31T16:44:17;11.60;;;6.90;;
4694;SDS011;2361;49.540;8.390;2022-10-31T16:49:42;11.97;;;7.70;;
4694;SDS011;2361;49.540;8.390;2022-10-31T16:52:12;13.30;;;8.13;;
4694;SDS011;2361;49.540;8.390;2022-10-31T16:54:39;20.50;;;9.53;;
4694;SDS011;2361;49.540;8.390;2022-10-31T16:57:06;19.80;;;8.40;;
4694;SDS011;2361;49.540;8.390;2022-10-31T16:59:41;14.10;;;8.80;;
4694;SDS011;2361;49.540;8.390;2022-10-31T17:02:10;19.80;;;9.13;;
4694;SDS011;2361;49.540;8.390;2022-10-31T17:04:42;19.67;;;9.67;;
4694;SDS011;2361;49.540;8.390;2022-10-31T17:07:09;15.83;;;8.77;;
4694;SDS011;2361;49.540;8.390;2022-10-31T17:09:36;15.90;;;9.07;;
4694;SDS011;2361;49.540;8.390;2022-10-31T17:12:03;16.20;;;6.80;;
4694;SDS011;2361;49.540;8.390;2022-10-31T17:14:33;19.80;;;9.50;;
4694;SDS011;2361;49.540;8.390;2022-10-31T17:17:00;17.80;;;8.70;;
4694;SDS011;2361;49.540;8.390;2022-10-31T17:19:27;15.23;;;8.87;;
4694;SDS011;2361;49.540;8.390;2022-10-31T17:21:54;13.10;;;8.27;;
4694;SDS011;2361;49.540;8.390;2022-10-31T17:24:21;12.00;;;8.60;;
4694;SDS011;2361;49.540;8.390;2022-10-31T17:26:48;16.23;;;9.20;;
4694;SDS011;2361;49.540;8.390;2022-10-31T17:29:15;20.80;;;10.10;;
4694;SDS011;2361;49.540;8.390;2022-10-31T17:31:43;18.57;;;9.83;;
4694;SDS011;2361;49.540;8.390;2022-10-31T17:34:10;23.23;;;9.17;;
4694;SDS011;2361;49.540;8.390;2022-10-31T17:36:37;26.60;;;11.00;;
4694;SDS011;2361;49.540;8.390;2022-10-31T17:39:04;15.57;;;9.43;;
4694;SDS011;2361;49.540;8.390;2022-10-31T17:41:32;19.03;;;8.53;;
4694;SDS011;2361;49.540;8.390;2022-10-31T17:43:59;16.70;;;7.80;;
4694;SDS011;2361;49.540;8.390;2022-10-31T17:46:26;19.07;;;10.07;;
4694;SDS011;2361;49.540;8.390;2022-10-31T17:48:53;21.70;;;11.30;;
4694;SDS011;2361;49.540;8.390;2022-10-31T17:51:21;15.57;;;9.90;;
4694;SDS011;2361;49.540;8.390;2022-10-31T17:53:48;18.07;;;9.03;;
4694;SDS011;2361;49.540;8.390;2022-10-31T17:56:14;14.70;;;8.37;;
4694;SDS011;2361;49.540;8.390;2022-10-31T17:58:41;27.07;;;11.33;;
4694;SDS011;2361;49.540;8.390;2022-10-31T18:01:10;18.70;;;8.90;;
4694;SDS011;2361;49.540;8.390;2022-10-31T18:03:40;19.80;;;8.80;;
4694;SDS011;2361;49.540;8.390;2022-10-31T18:06:07;17.37;;;8.40;;
4694;SDS011;2361;49.540;8.390;2022-10-31T18:08:36;15.10;;;8.77;;